Flight Number: EUR1533 Duration: 1:30
Departure: Barra Airport (EGPR) at 08:15 Distance: 272 Nm
Arrival: Liverpool Airport (EGGP) at 09:45 Equipment: B1900D

Weather Information
404 Not Found

Not Found

The requested URL /data/observations/metar/decoded/EGPR.TXT was not found on this server.


Sunrise: 08:24 Sunset: 16:05 (UTC)

Liverpool Airport , United Kingdom (EGGP) 53-20N 002-51W Nov 18, 2017 - 06:50 AM EST / 2017.11.18 1150 UTC
Wind: from the WNW (300 degrees) at 14 MPH (12 KT) (direction variable):0
Visibility: greater than 7 mile(s):0
Sky conditions: partly cloudy Temperature: 48 F (9 C) Dew Point: 41 F (5 C) Relative Humidity: 75% Pressure (altimeter): 30.15 in. Hg (1021 hPa)
ob: EGGP 181150Z 30012KT 260V330 9999 FEW017 SCT032 09/05 Q1021 cycle: 12
Sunrise: 07:47 Sunset: 16:05 (UTC)

TAF:2017/11/18 12:15 TAF EGGP 181055Z 1812/1912 30009KT 9999 SCT025 PROB30 TEMPO 1812/1820 9000 -SHRA

Previous Pireps for this route
Date Aircraft Flight time Fuel used Landing rate On time
2015-05-09B1900D01.391005-381Charter
2016-02-28B1900D01.12981-386Yes
2016-10-11B1900D01.121066-181No
(pireps marked green are flown by you)

Route map